sensor_id;sensor_type;location;lat;lon;timestamp;pressure;altitude;pressure_sealevel;temperature;humidity
43420;BME280;29017;51.514;-0.178;2023-05-23T00:01:05;102079.50;;;14.33;70.13
43420;BME280;29017;51.514;-0.178;2023-05-23T00:03:33;102079.34;;;14.35;69.77
43420;BME280;29017;51.514;-0.178;2023-05-23T00:06:04;102083.69;;;14.36;70.00
43420;BME280;29017;51.514;-0.178;2023-05-23T00:08:40;102080.63;;;14.31;70.13
43420;BME280;29017;51.514;-0.178;2023-05-23T00:11:07;102082.56;;;14.29;69.96
43420;BME280;29017;51.514;-0.178;2023-05-23T00:13:34;102084.56;;;14.27;70.09
43420;BME280;29017;51.514;-0.178;2023-05-23T00:16:02;102078.88;;;14.22;70.22
43420;BME280;29017;51.514;-0.178;2023-05-23T00:18:29;102086.00;;;14.11;70.34
43420;BME280;29017;51.514;-0.178;2023-05-23T00:20:56;102080.00;;;14.09;70.39
43420;BME280;29017;51.514;-0.178;2023-05-23T00:23:24;102066.38;;;14.04;70.42
43420;BME280;29017;51.514;-0.178;2023-05-23T00:25:52;102075.03;;;14.06;71.78
43420;BME280;29017;51.514;-0.178;2023-05-23T00:28:20;102063.28;;;14.09;70.95
43420;BME280;29017;51.514;-0.178;2023-05-23T00:30:48;102069.41;;;14.09;70.70
43420;BME280;29017;51.514;-0.178;2023-05-23T00:33:16;102072.06;;;14.09;70.28
43420;BME280;29017;51.514;-0.178;2023-05-23T00:35:43;102074.84;;;14.08;71.18
43420;BME280;29017;51.514;-0.178;2023-05-23T00:38:10;102060.66;;;14.09;70.81
43420;BME280;29017;51.514;-0.178;2023-05-23T00:40:38;102062.31;;;14.10;70.82
43420;BME280;29017;51.514;-0.178;2023-05-23T00:43:05;102063.44;;;14.07;71.08
43420;BME280;29017;51.514;-0.178;2023-05-23T00:45:34;102067.06;;;14.06;71.87
43420;BME280;29017;51.514;-0.178;2023-05-23T00:48:02;102064.56;;;14.05;72.08
43420;BME280;29017;51.514;-0.178;2023-05-23T00:50:30;102066.50;;;14.03;73.11
43420;BME280;29017;51.514;-0.178;2023-05-23T00:52:59;102064.31;;;13.98;73.40
43420;BME280;29017;51.514;-0.178;2023-05-23T00:55:27;102056.50;;;13.97;73.14
43420;BME280;29017;51.514;-0.178;2023-05-23T00:57:55;102052.59;;;14.01;72.99
43420;BME280;29017;51.514;-0.178;2023-05-23T01:00:24;102055.38;;;13.99;72.79
43420;BME280;29017;51.514;-0.178;2023-05-23T01:02:52;102047.88;;;13.95;72.69
43420;BME280;29017;51.514;-0.178;2023-05-23T01:05:20;102052.34;;;13.94;73.07
43420;BME280;29017;51.514;-0.178;2023-05-23T01:07:51;102051.63;;;13.92;73.60
43420;BME280;29017;51.514;-0.178;2023-05-23T01:10:23;102050.13;;;13.90;73.85
43420;BME280;29017;51.514;-0.178;2023-05-23T01:15:31;102057.94;;;13.82;74.66
43420;BME280;29017;51.514;-0.178;2023-05-23T01:18:06;102070.34;;;13.81;74.58
43420;BME280;29017;51.514;-0.178;2023-05-23T01:20:37;102058.22;;;13.79;74.91
43420;BME280;29017;51.514;-0.178;2023-05-23T01:28:19;102067.03;;;13.69;75.97
43420;BME280;29017;51.514;-0.178;2023-05-23T01:30:50;102064.13;;;13.63;76.98
43420;BME280;29017;51.514;-0.178;2023-05-23T01:33:19;102069.97;;;13.57;77.33
43420;BME280;29017;51.514;-0.178;2023-05-23T01:35:47;102073.59;;;13.56;77.80
43420;BME280;29017;51.514;-0.178;2023-05-23T01:38:14;102068.03;;;13.49;78.05
43420;BME280;29017;51.514;-0.178;2023-05-23T01:40:42;102069.84;;;13.49;78.92
43420;BME280;29017;51.514;-0.178;2023-05-23T01:43:09;102069.00;;;13.48;79.20
43420;BME280;29017;51.514;-0.178;2023-05-23T01:45:36;102072.91;;;13.44;79.54
43420;BME280;29017;51.514;-0.178;2023-05-23T01:48:04;102071.09;;;13.45;79.71
43420;BME280;29017;51.514;-0.178;2023-05-23T01:50:32;102072.50;;;13.49;80.87
43420;BME280;29017;51.514;-0.178;2023-05-23T01:53:00;102080.28;;;13.50;80.94
43420;BME280;29017;51.514;-0.178;2023-05-23T01:55:27;102075.44;;;13.46;81.12
43420;BME280;29017;51.514;-0.178;2023-05-23T01:57:55;102084.75;;;13.40;81.87
43420;BME280;29017;51.514;-0.178;2023-05-23T02:00:23;102083.75;;;13.41;82.15
43420;BME280;29017;51.514;-0.178;2023-05-23T02:02:50;102082.25;;;13.39;82.42
43420;BME280;29017;51.514;-0.178;2023-05-23T02:05:18;102080.44;;;13.39;82.50
43420;BME280;29017;51.514;-0.178;2023-05-23T02:07:45;102089.34;;;13.38;82.49
43420;BME280;29017;51.514;-0.178;2023-05-23T02:10:13;102092.81;;;13.39;83.19
43420;BME280;29017;51.514;-0.178;2023-05-23T02:12:40;102096.72;;;13.35;83.33
43420;BME280;29017;51.514;-0.178;2023-05-23T02:15:08;102094.63;;;13.28;83.73
43420;BME280;29017;51.514;-0.178;2023-05-23T02:17:35;102096.44;;;13.28;83.92
43420;BME280;29017;51.514;-0.178;2023-05-23T02:20:03;102099.50;;;13.23;84.06
43420;BME280;29017;51.514;-0.178;2023-05-23T02:22:30;102100.47;;;13.22;84.74
43420;BME280;29017;51.514;-0.178;2023-05-23T02:24:57;102098.09;;;13.19;84.73
43420;BME280;29017;51.514;-0.178;2023-05-23T02:27:25;102110.34;;;13.20;84.64
43420;BME280;29017;51.514;-0.178;2023-05-23T02:29:52;102107.72;;;13.20;84.81
43420;BME280;29017;51.514;-0.178;2023-05-23T02:32:19;102108.94;;;13.16;85.30
43420;BME280;29017;51.514;-0.178;2023-05-23T02:34:46;102105.31;;;13.17;85.14
43420;BME280;29017;51.514;-0.178;2023-05-23T02:37:16;102103.81;;;13.15;85.13
43420;BME280;29017;51.514;-0.178;2023-05-23T02:39:43;102102.56;;;13.19;85.15
43420;BME280;29017;51.514;-0.178;2023-05-23T02:42:10;102106.16;;;13.18;85.30
43420;BME280;29017;51.514;-0.178;2023-05-23T02:44:37;102107.00;;;13.18;85.47
43420;BME280;29017;51.514;-0.178;2023-05-23T02:47:05;102118.97;;;13.22;85.49
43420;BME280;29017;51.514;-0.178;2023-05-23T02:49:32;102118.69;;;13.25;85.49
43420;BME280;29017;51.514;-0.178;2023-05-23T02:52:00;102114.09;;;13.27;85.05
43420;BME280;29017;51.514;-0.178;2023-05-23T02:54:27;102114.66;;;13.31;84.95
43420;BME280;29017;51.514;-0.178;2023-05-23T02:56:54;102113.69;;;13.32;85.11
43420;BME280;29017;51.514;-0.178;2023-05-23T02:59:22;102117.88;;;13.35;85.72
43420;BME280;29017;51.514;-0.178;2023-05-23T03:01:49;102120.94;;;13.40;84.59
43420;BME280;29017;51.514;-0.178;2023-05-23T03:04:17;102115.91;;;13.37;84.74
43420;BME280;29017;51.514;-0.178;2023-05-23T03:06:44;102118.84;;;13.34;84.76
43420;BME280;29017;51.514;-0.178;2023-05-23T03:09:11;102119.66;;;13.34;84.93
43420;BME280;29017;51.514;-0.178;2023-05-23T03:11:38;102121.06;;;13.28;85.17
43420;BME280;29017;51.514;-0.178;2023-05-23T03:14:06;102124.00;;;13.25;85.47
43420;BME280;29017;51.514;-0.178;2023-05-23T03:16:33;102114.50;;;13.23;85.61
43420;BME280;29017;51.514;-0.178;2023-05-23T03:19:00;102122.56;;;13.21;85.75
43420;BME280;29017;51.514;-0.178;2023-05-23T03:21:28;102124.53;;;13.19;85.82
43420;BME280;29017;51.514;-0.178;2023-05-23T03:23:55;102116.44;;;13.21;85.56
43420;BME280;29017;51.514;-0.178;2023-05-23T03:26:22;102115.63;;;13.20;85.77
43420;BME280;29017;51.514;-0.178;2023-05-23T03:28:50;102115.78;;;13.19;85.56
43420;BME280;29017;51.514;-0.178;2023-05-23T03:31:17;102113.25;;;13.17;85.92
43420;BME280;29017;51.514;-0.178;2023-05-23T03:33:44;102127.31;;;13.18;86.39
43420;BME280;29017;51.514;-0.178;2023-05-23T03:36:11;102124.66;;;13.18;85.76
43420;BME280;29017;51.514;-0.178;2023-05-23T03:38:38;102124.13;;;13.14;85.58
43420;BME280;29017;51.514;-0.178;2023-05-23T03:41:06;102125.22;;;13.12;85.87
43420;BME280;29017;51.514;-0.178;2023-05-23T03:43:33;102119.78;;;13.13;85.88
43420;BME280;29017;51.514;-0.178;2023-05-23T03:46:00;102121.84;;;13.10;86.05
43420;BME280;29017;51.514;-0.178;2023-05-23T03:48:28;102120.75;;;13.12;86.40
43420;BME280;29017;51.514;-0.178;2023-05-23T03:50:56;102114.75;;;13.10;85.90
43420;BME280;29017;51.514;-0.178;2023-05-23T03:53:23;102121.84;;;13.10;86.05
43420;BME280;29017;51.514;-0.178;2023-05-23T03:55:50;102118.00;;;13.14;85.80
43420;BME280;29017;51.514;-0.178;2023-05-23T03:58:19;102120.63;;;13.14;86.13
43420;BME280;29017;51.514;-0.178;2023-05-23T04:00:47;102124.25;;;13.13;85.51
43420;BME280;29017;51.514;-0.178;2023-05-23T04:03:15;102123.50;;;13.11;85.76
43420;BME280;29017;51.514;-0.178;2023-05-23T04:05:43;102121.72;;;13.11;85.67
43420;BME280;29017;51.514;-0.178;2023-05-23T04:08:10;102121.72;;;13.11;86.06
43420;BME280;29017;51.514;-0.178;2023-05-23T04:10:38;102119.47;;;13.07;85.71
43420;BME280;29017;51.514;-0.178;2023-05-23T04:13:06;102120.84;;;13.01;85.88
43420;BME280;29017;51.514;-0.178;2023-05-23T04:15:33;102122.53;;;13.02;86.00
43420;BME280;29017;51.514;-0.178;2023-05-23T04:18:01;102130.31;;;13.04;85.84
43420;BME280;29017;51.514;-0.178;2023-05-23T04:20:29;102134.06;;;13.01;86.25
43420;BME280;29017;51.514;-0.178;2023-05-23T04:22:56;102128.22;;;12.98;85.99
43420;BME280;29017;51.514;-0.178;2023-05-23T04:25:24;102129.06;;;12.98;86.15
43420;BME280;29017;51.514;-0.178;2023-05-23T04:27:52;102132.25;;;13.02;85.62
43420;BME280;29017;51.514;-0.178;2023-05-23T04:30:20;102138.13;;;13.05;85.62
43420;BME280;29017;51.514;-0.178;2023-05-23T04:32:48;102137.00;;;13.08;85.53
43420;BME280;29017;51.514;-0.178;2023-05-23T04:35:15;102136.03;;;13.09;85.26
43420;BME280;29017;51.514;-0.178;2023-05-23T04:37:42;102143.84;;;13.10;84.84
43420;BME280;29017;51.514;-0.178;2023-05-23T04:40:11;102149.81;;;13.12;84.65
43420;BME280;29017;51.514;-0.178;2023-05-23T04:42:39;102147.91;;;13.14;84.72
43420;BME280;29017;51.514;-0.178;2023-05-23T04:45:08;102153.88;;;13.16;84.23
43420;BME280;29017;51.514;-0.178;2023-05-23T04:47:37;102155.97;;;13.22;83.37
43420;BME280;29017;51.514;-0.178;2023-05-23T04:50:05;102159.72;;;13.20;83.52
43420;BME280;29017;51.514;-0.178;2023-05-23T04:52:32;102163.22;;;13.20;83.22
43420;BME280;29017;51.514;-0.178;2023-05-23T04:55:00;102168.75;;;13.17;82.63
43420;BME280;29017;51.514;-0.178;2023-05-23T04:57:27;102177.94;;;13.13;82.95
43420;BME280;29017;51.514;-0.178;2023-05-23T04:59:54;102174.72;;;13.10;82.63
43420;BME280;29017;51.514;-0.178;2023-05-23T05:02:23;102173.72;;;13.11;82.51
43420;BME280;29017;51.514;-0.178;2023-05-23T05:04:50;102173.16;;;13.07;82.41
43420;BME280;29017;51.514;-0.178;2023-05-23T05:07:17;102188.03;;;13.08;82.50
43420;BME280;29017;51.514;-0.178;2023-05-23T05:09:45;102186.13;;;13.10;82.46
43420;BME280;29017;51.514;-0.178;2023-05-23T05:12:12;102184.28;;;13.11;82.30
43420;BME280;29017;51.514;-0.178;2023-05-23T05:14:39;102188.09;;;13.18;82.24
43420;BME280;29017;51.514;-0.178;2023-05-23T05:17:06;102183.09;;;13.15;82.06
43420;BME280;29017;51.514;-0.178;2023-05-23T05:19:34;102179.44;;;13.16;82.02
43420;BME280;29017;51.514;-0.178;2023-05-23T05:22:01;102185.72;;;13.15;81.70
43420;BME280;29017;51.514;-0.178;2023-05-23T05:24:29;102189.41;;;13.03;81.95
43420;BME280;29017;51.514;-0.178;2023-05-23T05:26:56;102192.34;;;13.00;82.25
43420;BME280;29017;51.514;-0.178;2023-05-23T05:29:23;102185.50;;;12.97;82.67
43420;BME280;29017;51.514;-0.178;2023-05-23T05:31:51;102202.75;;;13.01;82.12
43420;BME280;29017;51.514;-0.178;2023-05-23T05:34:19;102198.91;;;13.05;82.78
43420;BME280;29017;51.514;-0.178;2023-05-23T05:36:46;102201.63;;;12.94;82.31
43420;BME280;29017;51.514;-0.178;2023-05-23T05:39:14;102197.31;;;12.93;82.60
43420;BME280;29017;51.514;-0.178;2023-05-23T05:41:41;102189.94;;;12.97;82.74
43420;BME280;29017;51.514;-0.178;2023-05-23T05:44:08;102190.53;;;13.00;82.76
43420;BME280;29017;51.514;-0.178;2023-05-23T05:46:36;102201.78;;;13.02;82.47
43420;BME280;29017;51.514;-0.178;2023-05-23T05:49:03;102196.25;;;13.05;82.29
43420;BME280;29017;51.514;-0.178;2023-05-23T05:51:30;102197.91;;;13.06;82.45
43420;BME280;29017;51.514;-0.178;2023-05-23T05:53:58;102194.63;;;13.14;82.57
43420;BME280;29017;51.514;-0.178;2023-05-23T05:56:25;102192.28;;;13.20;81.97
43420;BME280;29017;51.514;-0.178;2023-05-23T05:58:54;102199.22;;;13.21;82.01
43420;BME280;29017;51.514;-0.178;2023-05-23T06:01:21;102196.56;;;13.21;81.69
43420;BME280;29017;51.514;-0.178;2023-05-23T06:03:49;102200.78;;;13.24;82.33
43420;BME280;29017;51.514;-0.178;2023-05-23T06:06:16;102207.16;;;13.31;83.15
43420;BME280;29017;51.514;-0.178;2023-05-23T06:08:44;102200.38;;;13.48;81.07
43420;BME280;29017;51.514;-0.178;2023-05-23T06:11:11;102208.06;;;13.80;79.75
43420;BME280;29017;51.514;-0.178;2023-05-23T06:13:39;102210.09;;;14.43;76.60
43420;BME280;29017;51.514;-0.178;2023-05-23T06:16:06;102208.00;;;15.11;73.87
43420;BME280;29017;51.514;-0.178;2023-05-23T06:18:34;102213.16;;;15.75;71.34
43420;BME280;29017;51.514;-0.178;2023-05-23T06:21:01;102215.91;;;16.27;69.84
43420;BME280;29017;51.514;-0.178;2023-05-23T06:23:29;102229.31;;;16.69;67.92
43420;BME280;29017;51.514;-0.178;2023-05-23T06:25:57;102225.22;;;16.57;66.84
43420;BME280;29017;51.514;-0.178;2023-05-23T06:28:25;102212.91;;;16.04;67.79
43420;BME280;29017;51.514;-0.178;2023-05-23T06:30:53;102221.91;;;15.68;69.20
43420;BME280;29017;51.514;-0.178;2023-05-23T06:33:20;102220.59;;;15.27;70.32
43420;BME280;29017;51.514;-0.178;2023-05-23T06:35:47;102219.25;;;15.40;70.12
43420;BME280;29017;51.514;-0.178;2023-05-23T06:38:15;102208.56;;;15.50;70.05
43420;BME280;29017;51.514;-0.178;2023-05-23T06:40:43;102216.97;;;15.46;69.24
43420;BME280;29017;51.514;-0.178;2023-05-23T06:43:11;102214.16;;;15.29;70.04
43420;BME280;29017;51.514;-0.178;2023-05-23T06:45:38;102213.69;;;15.16;69.40
43420;BME280;29017;51.514;-0.178;2023-05-23T06:48:05;102213.53;;;14.90;69.45
43420;BME280;29017;51.514;-0.178;2023-05-23T06:50:33;102230.06;;;14.75;69.99
43420;BME280;29017;51.514;-0.178;2023-05-23T06:53:00;102215.84;;;14.76;70.15
43420;BME280;29017;51.514;-0.178;2023-05-23T06:55:27;102210.69;;;14.74;69.55
43420;BME280;29017;51.514;-0.178;2023-05-23T06:57:55;102210.94;;;14.81;69.34
43420;BME280;29017;51.514;-0.178;2023-05-23T07:00:22;102214.41;;;14.81;69.31
43420;BME280;29017;51.514;-0.178;2023-05-23T07:02:50;102216.38;;;14.79;68.92
43420;BME280;29017;51.514;-0.178;2023-05-23T07:05:17;102210.84;;;14.73;68.37
43420;BME280;29017;51.514;-0.178;2023-05-23T07:07:45;102212.78;;;14.71;69.16
43420;BME280;29017;51.514;-0.178;2023-05-23T07:10:13;102218.22;;;14.69;69.03
43420;BME280;29017;51.514;-0.178;2023-05-23T07:12:40;102215.31;;;14.72;69.43
43420;BME280;29017;51.514;-0.178;2023-05-23T07:15:10;102216.81;;;14.75;70.00
43420;BME280;29017;51.514;-0.178;2023-05-23T07:17:37;102219.88;;;14.80;68.77
43420;BME280;29017;51.514;-0.178;2023-05-23T07:20:06;102220.13;;;14.86;68.37
43420;BME280;29017;51.514;-0.178;2023-05-23T07:22:34;102222.28;;;15.01;67.08
43420;BME280;29017;51.514;-0.178;2023-05-23T07:25:01;102235.63;;;15.09;66.17
43420;BME280;29017;51.514;-0.178;2023-05-23T07:27:29;102232.38;;;15.15;66.87
43420;BME280;29017;51.514;-0.178;2023-05-23T07:29:56;102231.34;;;15.25;66.04
43420;BME280;29017;51.514;-0.178;2023-05-23T07:32:24;102233.72;;;15.28;65.32
43420;BME280;29017;51.514;-0.178;2023-05-23T07:34:52;102235.16;;;15.23;65.36
43420;BME280;29017;51.514;-0.178;2023-05-23T07:37:20;102227.78;;;15.17;65.92
43420;BME280;29017;51.514;-0.178;2023-05-23T07:39:47;102232.00;;;15.10;64.99
43420;BME280;29017;51.514;-0.178;2023-05-23T07:42:15;102227.97;;;15.06;65.00
43420;BME280;29017;51.514;-0.178;2023-05-23T07:44:42;102221.13;;;15.13;64.53
43420;BME280;29017;51.514;-0.178;2023-05-23T07:47:09;102224.28;;;15.16;63.90
43420;BME280;29017;51.514;-0.178;2023-05-23T07:49:37;102229.00;;;15.22;63.29
43420;BME280;29017;51.514;-0.178;2023-05-23T07:52:05;102227.97;;;15.33;63.88
43420;BME280;29017;51.514;-0.178;2023-05-23T07:54:32;102220.22;;;15.39;62.51
43420;BME280;29017;51.514;-0.178;2023-05-23T07:57:00;102223.28;;;15.45;62.25
43420;BME280;29017;51.514;-0.178;2023-05-23T07:59:31;102221.59;;;15.53;62.42
43420;BME280;29017;51.514;-0.178;2023-05-23T08:01:59;102229.09;;;15.58;62.43
43420;BME280;29017;51.514;-0.178;2023-05-23T08:04:28;102240.94;;;15.63;62.38
43420;BME280;29017;51.514;-0.178;2023-05-23T08:06:56;102238.34;;;15.71;62.00
43420;BME280;29017;51.514;-0.178;2023-05-23T08:09:31;102245.69;;;15.77;60.80
43420;BME280;29017;51.514;-0.178;2023-05-23T08:11:58;102241.81;;;15.72;60.77
43420;BME280;29017;51.514;-0.178;2023-05-23T08:14:26;102236.28;;;15.65;60.52
43420;BME280;29017;51.514;-0.178;2023-05-23T08:17:14;102233.28;;;15.51;60.67
43420;BME280;29017;51.514;-0.178;2023-05-23T08:19:41;102236.09;;;15.49;61.61
43420;BME280;29017;51.514;-0.178;2023-05-23T08:22:09;102237.75;;;15.50;60.61
43420;BME280;29017;51.514;-0.178;2023-05-23T08:24:37;102229.19;;;15.38;59.35
43420;BME280;29017;51.514;-0.178;2023-05-23T08:27:04;102237.44;;;15.35;60.05
43420;BME280;29017;51.514;-0.178;2023-05-23T08:29:33;102236.97;;;15.22;61.18
43420;BME280;29017;51.514;-0.178;2023-05-23T08:32:01;102224.75;;;15.29;62.38
43420;BME280;29017;51.514;-0.178;2023-05-23T08:34:29;102232.78;;;15.20;60.90
43420;BME280;29017;51.514;-0.178;2023-05-23T08:36:57;102233.63;;;15.20;60.61
43420;BME280;29017;51.514;-0.178;2023-05-23T08:39:24;102238.78;;;15.22;61.08
43420;BME280;29017;51.514;-0.178;2023-05-23T08:41:52;102236.59;;;15.35;59.66
43420;BME280;29017;51.514;-0.178;2023-05-23T08:44:19;102224.56;;;15.40;59.27
43420;BME280;29017;51.514;-0.178;2023-05-23T08:46:48;102236.00;;;15.41;56.98
43420;BME280;29017;51.514;-0.178;2023-05-23T08:49:21;102226.81;;;15.35;57.02
43420;BME280;29017;51.514;-0.178;2023-05-23T08:51:51;102235.75;;;15.34;57.68
43420;BME280;29017;51.514;-0.178;2023-05-23T08:54:20;102238.13;;;15.37;58.23
43420;BME280;29017;51.514;-0.178;2023-05-23T08:56:48;102243.97;;;15.41;58.49
43420;BME280;29017;51.514;-0.178;2023-05-23T08:59:16;102238.34;;;15.44;58.25
43420;BME280;29017;51.514;-0.178;2023-05-23T09:01:44;102239.75;;;15.48;58.28
43420;BME280;29017;51.514;-0.178;2023-05-23T09:04:13;102245.59;;;15.52;58.27
43420;BME280;29017;51.514;-0.178;2023-05-23T09:06:41;102247.28;;;15.53;57.12
43420;BME280;29017;51.514;-0.178;2023-05-23T09:09:08;102241.84;;;15.45;57.01
43420;BME280;29017;51.514;-0.178;2023-05-23T09:11:36;102242.84;;;15.44;58.55
43420;BME280;29017;51.514;-0.178;2023-05-23T09:14:03;102239.84;;;15.29;57.66
43420;BME280;29017;51.514;-0.178;2023-05-23T09:16:34;102245.31;;;15.27;57.34
43420;BME280;29017;51.514;-0.178;2023-05-23T09:19:10;102245.38;;;15.18;57.81
43420;BME280;29017;51.514;-0.178;2023-05-23T09:21:43;102253.53;;;15.24;58.46
43420;BME280;29017;51.514;-0.178;2023-05-23T09:24:11;102246.16;;;15.28;58.49
43420;BME280;29017;51.514;-0.178;2023-05-23T09:26:38;102244.41;;;15.36;58.04
43420;BME280;29017;51.514;-0.178;2023-05-23T09:29:06;102238.53;;;15.43;57.91
43420;BME280;29017;51.514;-0.178;2023-05-23T09:31:34;102243.66;;;15.54;58.20
43420;BME280;29017;51.514;-0.178;2023-05-23T09:34:02;102240.69;;;15.57;57.17
43420;BME280;29017;51.514;-0.178;2023-05-23T09:36:31;102237.72;;;15.60;57.03
43420;BME280;29017;51.514;-0.178;2023-05-23T09:39:02;102242.97;;;15.69;57.27
43420;BME280;29017;51.514;-0.178;2023-05-23T09:41:33;102249.56;;;15.83;56.72
43420;BME280;29017;51.514;-0.178;2023-05-23T09:44:06;102250.72;;;15.98;56.36
43420;BME280;29017;51.514;-0.178;2023-05-23T09:46:35;102242.03;;;16.14;55.37
43420;BME280;29017;51.514;-0.178;2023-05-23T09:51:38;102253.31;;;16.34;55.38
43420;BME280;29017;51.514;-0.178;2023-05-23T09:54:06;102253.81;;;16.37;54.01
43420;BME280;29017;51.514;-0.178;2023-05-23T09:56:34;102256.81;;;16.34;54.36
43420;BME280;29017;51.514;-0.178;2023-05-23T09:59:08;102265.72;;;16.25;54.49
43420;BME280;29017;51.514;-0.178;2023-05-23T10:01:39;102259.59;;;16.33;54.82
43420;BME280;29017;51.514;-0.178;2023-05-23T10:04:08;102262.50;;;16.39;54.38
43420;BME280;29017;51.514;-0.178;2023-05-23T10:06:40;102266.63;;;16.42;54.55
43420;BME280;29017;51.514;-0.178;2023-05-23T10:09:15;102262.69;;;16.46;54.83
43420;BME280;29017;51.514;-0.178;2023-05-23T10:14:17;102266.06;;;16.56;53.42
43420;BME280;29017;51.514;-0.178;2023-05-23T10:21:50;102255.28;;;16.75;53.78
43420;BME280;29017;51.514;-0.178;2023-05-23T10:24:23;102253.00;;;16.88;54.47
43420;BME280;29017;51.514;-0.178;2023-05-23T10:26:51;102259.44;;;17.12;52.41
43420;BME280;29017;51.514;-0.178;2023-05-23T10:29:21;102253.94;;;17.13;51.48
43420;BME280;29017;51.514;-0.178;2023-05-23T10:31:50;102249.94;;;17.09;51.61
43420;BME280;29017;51.514;-0.178;2023-05-23T10:41:59;102243.38;;;17.37;50.44
43420;BME280;29017;51.514;-0.178;2023-05-23T10:44:29;102251.56;;;17.44;49.87
43420;BME280;29017;51.514;-0.178;2023-05-23T10:46:59;102256.38;;;17.48;48.45
43420;BME280;29017;51.514;-0.178;2023-05-23T10:52:09;102252.06;;;17.47;49.63
43420;BME280;29017;51.514;-0.178;2023-05-23T10:54:41;102253.72;;;17.48;49.45
43420;BME280;29017;51.514;-0.178;2023-05-23T10:57:11;102260.03;;;17.47;49.66
43420;BME280;29017;51.514;-0.178;2023-05-23T10:59:39;102255.75;;;17.54;49.89
43420;BME280;29017;51.514;-0.178;2023-05-23T11:02:12;102267.59;;;17.60;49.67
43420;BME280;29017;51.514;-0.178;2023-05-23T11:04:43;102258.78;;;17.60;49.67
43420;BME280;29017;51.514;-0.178;2023-05-23T11:17:51;102253.00;;;17.80;49.84
43420;BME280;29017;51.514;-0.178;2023-05-23T11:20:20;102262.13;;;17.78;50.00
43420;BME280;29017;51.514;-0.178;2023-05-23T11:22:53;102259.00;;;17.82;50.52
43420;BME280;29017;51.514;-0.178;2023-05-23T11:25:39;102260.31;;;17.86;51.43
43420;BME280;29017;51.514;-0.178;2023-05-23T11:28:09;102256.00;;;17.93;51.26
43420;BME280;29017;51.514;-0.178;2023-05-23T11:30:37;102264.16;;;18.00;50.75
43420;BME280;29017;51.514;-0.178;2023-05-23T11:33:08;102264.34;;;18.07;50.21
43420;BME280;29017;51.514;-0.178;2023-05-23T11:35:40;102264.34;;;18.07;50.73
43420;BME280;29017;51.514;-0.178;2023-05-23T11:38:09;102270.66;;;18.06;50.61
43420;BME280;29017;51.514;-0.178;2023-05-23T11:40:39;102257.69;;;18.03;50.60
43420;BME280;29017;51.514;-0.178;2023-05-23T11:43:09;102257.00;;;18.01;51.50
43420;BME280;29017;51.514;-0.178;2023-05-23T11:45:38;102253.84;;;18.05;51.88
43420;BME280;29017;51.514;-0.178;2023-05-23T11:53:10;102252.00;;;17.98;52.60
43420;BME280;29017;51.514;-0.178;2023-05-23T11:55:39;102249.50;;;18.04;52.12
43420;BME280;29017;51.514;-0.178;2023-05-23T11:58:14;102249.69;;;18.11;52.18
43420;BME280;29017;51.514;-0.178;2023-05-23T12:00:43;102247.84;;;18.11;52.43
43420;BME280;29017;51.514;-0.178;2023-05-23T12:03:11;102242.84;;;18.16;52.38
43420;BME280;29017;51.514;-0.178;2023-05-23T12:05:42;102248.03;;;18.18;51.39
43420;BME280;29017;51.514;-0.178;2023-05-23T12:08:11;102252.16;;;18.20;51.88
43420;BME280;29017;51.514;-0.178;2023-05-23T12:13:14;102248.00;;;18.26;51.42
43420;BME280;29017;51.514;-0.178;2023-05-23T12:15:41;102245.00;;;18.21;52.33
43420;BME280;29017;51.514;-0.178;2023-05-23T12:18:10;102255.66;;;18.05;51.30
43420;BME280;29017;51.514;-0.178;2023-05-23T12:20:40;102260.50;;;18.01;50.97
43420;BME280;29017;51.514;-0.178;2023-05-23T12:23:16;102251.00;;;18.07;51.62
43420;BME280;29017;51.514;-0.178;2023-05-23T12:25:44;102248.84;;;18.10;51.89
43420;BME280;29017;51.514;-0.178;2023-05-23T12:28:15;102245.84;;;18.13;51.86
43420;BME280;29017;51.514;-0.178;2023-05-23T12:30:43;102235.53;;;18.18;52.05
43420;BME280;29017;51.514;-0.178;2023-05-23T12:33:10;102242.97;;;18.39;51.77
43420;BME280;29017;51.514;-0.178;2023-05-23T12:35:42;102237.13;;;18.60;50.67
43420;BME280;29017;51.514;-0.178;2023-05-23T12:38:14;102240.44;;;18.70;50.62
43420;BME280;29017;51.514;-0.178;2023-05-23T12:40:43;102235.47;;;18.67;50.63
43420;BME280;29017;51.514;-0.178;2023-05-23T12:43:10;102237.97;;;18.52;50.63
43420;BME280;29017;51.514;-0.178;2023-05-23T12:45:38;102234.63;;;18.50;50.39
43420;BME280;29017;51.514;-0.178;2023-05-23T12:48:06;102226.16;;;18.47;51.85
43420;BME280;29017;51.514;-0.178;2023-05-23T12:50:34;102229.66;;;18.39;51.56
43420;BME280;29017;51.514;-0.178;2023-05-23T12:53:02;102221.34;;;18.42;50.75
43420;BME280;29017;51.514;-0.178;2023-05-23T12:55:29;102224.16;;;18.41;50.81
43420;BME280;29017;51.514;-0.178;2023-05-23T12:57:57;102227.81;;;18.39;50.85
43420;BME280;29017;51.514;-0.178;2023-05-23T13:00:24;102221.66;;;18.39;50.07
43420;BME280;29017;51.514;-0.178;2023-05-23T13:02:52;102229.50;;;18.41;50.68
43420;BME280;29017;51.514;-0.178;2023-05-23T13:05:20;102217.66;;;18.43;50.02
43420;BME280;29017;51.514;-0.178;2023-05-23T13:07:48;102210.66;;;18.42;50.44
43420;BME280;29017;51.514;-0.178;2023-05-23T13:10:16;102220.16;;;18.45;50.39
43420;BME280;29017;51.514;-0.178;2023-05-23T13:12:43;102218.47;;;18.52;50.43
43420;BME280;29017;51.514;-0.178;2023-05-23T13:15:10;102225.16;;;18.56;50.36
43420;BME280;29017;51.514;-0.178;2023-05-23T13:17:38;102220.81;;;18.55;50.78
43420;BME280;29017;51.514;-0.178;2023-05-23T13:20:07;102221.13;;;18.52;49.11
43420;BME280;29017;51.514;-0.178;2023-05-23T13:22:35;102216.81;;;18.51;49.26
43420;BME280;29017;51.514;-0.178;2023-05-23T13:25:03;102215.50;;;18.55;49.59
43420;BME280;29017;51.514;-0.178;2023-05-23T13:27:31;102220.81;;;18.55;49.75
43420;BME280;29017;51.514;-0.178;2023-05-23T13:29:59;102224.00;;;18.58;49.86
43420;BME280;29017;51.514;-0.178;2023-05-23T13:32:26;102220.47;;;18.50;49.64